Time;durP1;ratioP1;P1;durP2;ratioP2;P2;SDS_P1;SDS_P2;PMS_P1;PMS_P2;Temp;Humidity;BMP_temperature;BMP_pressure;BME280_temperature;BME280_humidity;BME280_pressure;Samples;Min_cycle;Max_cycle;Signal;HPM_P1;HPM_P2
2020/12/04 00:01:15;;;;;;;56.55;31.73;;;;;;;;;;5031994;28;20097;-53
2020/12/04 00:03:41;;;;;;;56.33;34.22;;;;;;;;;;5032142;28;20025;-53
2020/12/04 00:06:08;;;;;;;54.03;27.60;;;;;;;;;;5031859;28;20064;-53
2020/12/04 00:08:34;;;;;;;62.13;30.92;;;;;;;;;;5032078;28;20029;-52
2020/12/04 00:11:00;;;;;;;48.55;29.70;;;;;;;;;;5031904;28;20049;-52
2020/12/04 00:13:26;;;;;;;62.45;30.77;;;;;;;;;;5031749;28;20490;-52
2020/12/04 00:15:53;;;;;;;58.97;30.17;;;;;;;;;;5031835;28;20022;-52
2020/12/04 00:18:19;;;;;;;57.80;32.60;;;;;;;;;;5031723;28;20033;-52
2020/12/04 00:20:45;;;;;;;63.30;30.92;;;;;;;;;;5031968;28;20486;-53
2020/12/04 00:23:12;;;;;;;49.55;28.48;;;;;;;;;;5031663;28;20600;-53
2020/12/04 00:25:38;;;;;;;54.70;33.42;;;;;;;;;;5031671;28;20029;-53
2020/12/04 00:28:04;;;;;;;54.45;31.13;;;;;;;;;;5031745;28;20025;-53
2020/12/04 00:30:30;;;;;;;59.08;32.85;;;;;;;;;;5031814;28;20479;-53
2020/12/04 00:32:56;;;;;;;54.92;30.83;;;;;;;;;;5031837;28;20025;-53
2020/12/04 00:35:23;;;;;;;60.03;31.08;;;;;;;;;;5035646;28;20028;-52
2020/12/04 00:37:49;;;;;;;51.60;35.20;;;;;;;;;;5035955;28;20146;-52
2020/12/04 00:40:15;;;;;;;69.40;32.25;;;;;;;;;;5035577;28;20072;-52
2020/12/04 00:42:45;;;;;;;70.38;35.30;;;;;;;;;;5035675;28;20030;-52
2020/12/04 00:45:11;;;;;;;46.97;29.77;;;;;;;;;;5035599;28;20025;-52
2020/12/04 00:47:38;;;;;;;61.38;30.23;;;;;;;;;;5035893;28;20032;-52
2020/12/04 00:50:04;;;;;;;51.53;28.92;;;;;;;;;;5035674;28;20076;-52
2020/12/04 00:52:30;;;;;;;76.10;31.05;;;;;;;;;;5035563;28;20101;-53
2020/12/04 00:54:56;;;;;;;61.40;31.60;;;;;;;;;;5035514;28;20100;-52
2020/12/04 00:57:23;;;;;;;57.70;27.67;;;;;;;;;;5035370;28;20083;-53
2020/12/04 00:59:49;;;;;;;46.65;28.15;;;;;;;;;;5035440;28;20025;-53
2020/12/04 01:02:16;;;;;;;57.40;31.02;;;;;;;;;;5035076;28;20025;-52
2020/12/04 01:04:42;;;;;;;51.55;28.23;;;;;;;;;;5035435;28;20032;-52
2020/12/04 01:07:09;;;;;;;44.20;25.75;;;;;;;;;;5166656;23;20041;-49
2020/12/04 01:09:35;;;;;;;48.67;26.92;;;;;;;;;;5035106;28;20036;-50
2020/12/04 01:12:02;;;;;;;53.78;29.45;;;;;;;;;;5035249;28;20022;-50
2020/12/04 01:14:28;;;;;;;50.08;26.70;;;;;;;;;;5034946;28;20022;-51
2020/12/04 01:16:55;;;;;;;48.40;27.02;;;;;;;;;;5035074;28;20448;-51
2020/12/04 01:19:21;;;;;;;50.38;24.98;;;;;;;;;;5034930;28;20026;-52
2020/12/04 01:21:50;;;;;;;46.67;25.17;;;;;;;;;;5035013;28;20067;-51
2020/12/04 01:24:16;;;;;;;54.85;27.38;;;;;;;;;;5034919;28;20390;-51
2020/12/04 01:26:43;;;;;;;44.95;24.70;;;;;;;;;;5035012;28;20029;-52
2020/12/04 01:29:09;;;;;;;47.38;25.20;;;;;;;;;;5034639;28;20025;-51
2020/12/04 01:31:35;;;;;;;54.22;27.30;;;;;;;;;;5034820;28;20021;-51
2020/12/04 01:34:02;;;;;;;45.42;27.58;;;;;;;;;;5034333;28;20140;-51
2020/12/04 01:36:28;;;;;;;46.13;26.13;;;;;;;;;;5034939;28;20544;-51
2020/12/04 01:38:54;;;;;;;48.40;27.02;;;;;;;;;;5034769;28;20394;-51
2020/12/04 01:41:21;;;;;;;44.15;25.40;;;;;;;;;;5034727;28;20378;-51
2020/12/04 01:43:47;;;;;;;57.40;26.30;;;;;;;;;;5034719;28;20022;-50
2020/12/04 01:46:16;;;;;;;42.90;24.48;;;;;;;;;;5034162;28;20033;-51
2020/12/04 01:48:46;;;;;;;45.70;26.42;;;;;;;;;;5034683;28;20017;-51
2020/12/04 01:51:12;;;;;;;58.30;28.63;;;;;;;;;;5034599;28;20029;-51
2020/12/04 01:53:40;;;;;;;44.08;24.55;;;;;;;;;;5034395;28;20021;-51
2020/12/04 01:56:06;;;;;;;45.05;27.50;;;;;;;;;;5034358;28;20025;-51
2020/12/04 01:58:33;;;;;;;50.90;28.63;;;;;;;;;;5034254;28;20384;-51
2020/12/04 02:00:59;;;;;;;60.50;30.00;;;;;;;;;;5034306;28;20033;-51
2020/12/04 02:03:25;;;;;;;49.28;25.65;;;;;;;;;;5034149;28;20029;-51
2020/12/04 02:06:02;;;;;;;40.22;22.75;;;;;;;;;;5032995;28;20025;-51
2020/12/04 02:08:44;;;;;;;42.90;26.95;;;;;;;;;;5049295;28;20068;-51
2020/12/04 02:11:13;;;;;;;48.25;24.40;;;;;;;;;;5054261;28;20474;-51
2020/12/04 02:13:40;;;;;;;48.25;24.52;;;;;;;;;;5053904;28;20032;-51
2020/12/04 02:16:07;;;;;;;38.17;23.80;;;;;;;;;;5054069;28;20024;-51
2020/12/04 02:18:36;;;;;;;40.83;22.60;;;;;;;;;;5053868;28;20036;-52
2020/12/04 02:21:02;;;;;;;55.83;27.58;;;;;;;;;;5053893;28;20033;-51
2020/12/04 02:23:29;;;;;;;53.03;29.85;;;;;;;;;;5053948;28;20021;-51
2020/12/04 02:25:58;;;;;;;54.45;27.67;;;;;;;;;;5053680;28;20029;-51
2020/12/04 02:28:31;;;;;;;42.13;25.98;;;;;;;;;;5053754;28;20028;-51
2020/12/04 02:30:58;;;;;;;41.47;24.63;;;;;;;;;;5053617;28;20025;-51
2020/12/04 02:33:24;;;;;;;45.95;25.02;;;;;;;;;;5053772;28;20017;-51
2020/12/04 02:35:50;;;;;;;45.35;25.60;;;;;;;;;;5053619;28;20053;-51
2020/12/04 02:38:17;;;;;;;47.20;23.50;;;;;;;;;;5053460;28;20112;-51
2020/12/04 02:40:43;;;;;;;57.40;25.80;;;;;;;;;;5053406;28;20032;-51
2020/12/04 02:43:09;;;;;;;83.70;27.60;;;;;;;;;;5053489;28;20049;-51
2020/12/04 02:45:36;;;;;;;99.57;23.08;;;;;;;;;;5035615;28;20061;-51
2020/12/04 02:48:02;;;;;;;61.05;23.30;;;;;;;;;;5053248;28;20021;-51
2020/12/04 02:50:28;;;;;;;78.22;27.80;;;;;;;;;;5053459;28;20074;-51
2020/12/04 02:52:54;;;;;;;83.18;29.67;;;;;;;;;;5053074;28;20059;-50
2020/12/04 02:55:21;;;;;;;69.03;28.15;;;;;;;;;;5053325;28;20017;-50
2020/12/04 02:57:47;;;;;;;89.03;27.80;;;;;;;;;;5052436;28;20025;-51
2020/12/04 03:00:13;;;;;;;81.55;29.17;;;;;;;;;;5053257;28;20366;-51
2020/12/04 03:02:39;;;;;;;64.07;26.48;;;;;;;;;;5053097;28;20025;-51
2020/12/04 03:05:06;;;;;;;65.60;26.02;;;;;;;;;;5053111;28;20032;-51
2020/12/04 03:07:32;;;;;;;69.82;26.48;;;;;;;;;;5052605;28;20049;-51
2020/12/04 03:09:58;;;;;;;63.33;27.33;;;;;;;;;;5052961;28;20040;-51
2020/12/04 03:12:25;;;;;;;57.95;26.35;;;;;;;;;;5052812;28;20028;-51
2020/12/04 03:14:51;;;;;;;63.35;26.67;;;;;;;;;;5052924;28;20024;-51
2020/12/04 03:17:17;;;;;;;55.55;24.50;;;;;;;;;;5052907;28;20505;-51
2020/12/04 03:19:43;;;;;;;60.40;26.52;;;;;;;;;;5052682;28;20053;-51
2020/12/04 03:22:10;;;;;;;62.17;28.05;;;;;;;;;;5052738;28;20025;-51
2020/12/04 03:24:36;;;;;;;62.70;28.58;;;;;;;;;;5052536;28;20104;-51
2020/12/04 03:27:02;;;;;;;51.90;28.42;;;;;;;;;;5052631;28;20021;-51
2020/12/04 03:29:28;;;;;;;63.15;31.35;;;;;;;;;;5052538;28;20556;-51
2020/12/04 03:31:55;;;;;;;60.58;27.02;;;;;;;;;;5052528;28;20382;-51
2020/12/04 03:34:21;;;;;;;46.30;25.67;;;;;;;;;;5052269;28;20100;-51
2020/12/04 03:36:47;;;;;;;49.72;23.05;;;;;;;;;;5052594;28;20024;-51
2020/12/04 03:39:13;;;;;;;48.17;24.85;;;;;;;;;;5052609;28;20036;-51
2020/12/04 03:41:40;;;;;;;44.63;24.77;;;;;;;;;;5052460;28;20021;-51
2020/12/04 03:44:06;;;;;;;54.60;26.95;;;;;;;;;;5052295;28;20505;-51
2020/12/04 03:46:32;;;;;;;44.53;26.15;;;;;;;;;;5052071;28;20478;-50
2020/12/04 03:48:59;;;;;;;41.00;23.40;;;;;;;;;;5052225;28;20039;-52
2020/12/04 03:51:25;;;;;;;50.25;23.48;;;;;;;;;;5052258;28;20346;-51
2020/12/04 03:53:51;;;;;;;44.92;23.73;;;;;;;;;;5052155;28;20382;-51
2020/12/04 03:56:17;;;;;;;46.10;22.05;;;;;;;;;;5051957;28;20112;-51
2020/12/04 03:58:43;;;;;;;49.88;24.73;;;;;;;;;;5052087;28;20025;-51
2020/12/04 04:01:10;;;;;;;43.33;23.50;;;;;;;;;;5034179;28;20031;-51
2020/12/04 04:03:36;;;;;;;57.95;24.67;;;;;;;;;;5052024;28;20474;-51
2020/12/04 04:06:02;;;;;;;46.33;23.92;;;;;;;;;;5051864;28;20039;-51
2020/12/04 04:08:28;;;;;;;39.47;24.55;;;;;;;;;;5051639;28;20049;-51
2020/12/04 04:10:55;;;;;;;58.78;24.90;;;;;;;;;;5051892;28;20074;-51
2020/12/04 04:13:21;;;;;;;46.13;26.45;;;;;;;;;;5050730;28;20045;-51
2020/12/04 04:15:47;;;;;;;53.90;24.75;;;;;;;;;;5051280;28;20020;-51
2020/12/04 04:18:16;;;;;;;41.78;23.50;;;;;;;;;;5051175;28;20013;-51
2020/12/04 04:20:42;;;;;;;39.20;25.17;;;;;;;;;;5051180;28;20062;-51
2020/12/04 04:23:09;;;;;;;70.35;28.15;;;;;;;;;;5050779;28;20029;-51
2020/12/04 04:25:35;;;;;;;47.15;23.40;;;;;;;;;;5051174;28;20429;-49
2020/12/04 04:28:01;;;;;;;63.10;22.73;;;;;;;;;;5051179;28;20116;-49
2020/12/04 04:30:27;;;;;;;46.65;23.92;;;;;;;;;;5051228;28;20025;-52
2020/12/04 04:32:54;;;;;;;46.45;23.52;;;;;;;;;;5051155;28;20100;-50
2020/12/04 04:35:20;;;;;;;38.45;21.45;;;;;;;;;;5033256;28;20017;-49
2020/12/04 04:37:46;;;;;;;43.33;25.67;;;;;;;;;;5051302;28;20382;-50
2020/12/04 04:40:13;;;;;;;51.17;22.85;;;;;;;;;;5033252;28;20474;-49
2020/12/04 04:42:39;;;;;;;43.45;25.10;;;;;;;;;;5051001;28;20402;-49
2020/12/04 04:45:05;;;;;;;38.67;23.50;;;;;;;;;;5050993;28;20023;-49
2020/12/04 04:47:33;;;;;;;41.10;23.15;;;;;;;;;;5050846;28;20071;-50
2020/12/04 04:49:59;;;;;;;39.33;25.27;;;;;;;;;;5050944;28;20013;-50
2020/12/04 04:52:27;;;;;;;47.05;25.27;;;;;;;;;;5050913;28;20021;-49
2020/12/04 04:54:54;;;;;;;40.53;24.50;;;;;;;;;;5050993;28;20017;-50
2020/12/04 04:57:24;;;;;;;41.55;20.90;;;;;;;;;;5050799;28;20025;-50
2020/12/04 04:59:52;;;;;;;45.47;23.55;;;;;;;;;;5048862;28;20021;-50
2020/12/04 05:02:19;;;;;;;39.45;23.70;;;;;;;;;;5050582;28;20025;-51
2020/12/04 05:04:49;;;;;;;50.20;26.38;;;;;;;;;;5050810;28;20044;-51
2020/12/04 05:07:17;;;;;;;47.25;25.63;;;;;;;;;;5051059;28;20111;-50
2020/12/04 05:09:43;;;;;;;39.88;25.58;;;;;;;;;;5050696;28;20048;-51
2020/12/04 05:12:10;;;;;;;43.97;25.50;;;;;;;;;;5050683;28;20032;-50
2020/12/04 05:14:36;;;;;;;45.38;27.70;;;;;;;;;;5050273;28;20032;-51
2020/12/04 05:17:08;;;;;;;45.17;26.38;;;;;;;;;;5050573;28;20022;-51
2020/12/04 05:19:36;;;;;;;42.00;27.00;;;;;;;;;;5051217;28;20021;-51
2020/12/04 05:22:09;;;;;;;50.90;26.85;;;;;;;;;;5054206;28;20024;-50
2020/12/04 05:24:36;;;;;;;46.55;25.23;;;;;;;;;;5054617;28;20044;-51
2020/12/04 05:27:24;;;;;;;31.75;19.00;;;;;;;;;;5057475;28;20029;-51
2020/12/04 05:29:53;;;;;;;36.45;23.30;;;;;;;;;;5041361;28;20029;-52
2020/12/04 05:32:19;;;;;;;42.85;25.50;;;;;;;;;;5059707;28;20025;-52
2020/12/04 05:34:46;;;;;;;43.50;26.95;;;;;;;;;;5037696;28;20116;-52
2020/12/04 05:37:13;;;;;;;49.67;25.38;;;;;;;;;;5036468;28;20423;-52
2020/12/04 05:39:43;;;;;;;46.13;26.30;;;;;;;;;;5054599;28;20025;-51
2020/12/04 05:42:09;;;;;;;42.35;24.45;;;;;;;;;;5054595;28;20029;-52
2020/12/04 05:44:36;;;;;;;39.70;21.30;;;;;;;;;;5053909;28;20033;-51
2020/12/04 05:47:02;;;;;;;41.60;25.13;;;;;;;;;;5053376;28;20040;-51
2020/12/04 05:49:41;;;;;;;43.05;25.58;;;;;;;;;;5054035;28;20079;-51
2020/12/04 05:52:08;;;;;;;41.33;19.27;;;;;;;;;;5054301;28;20025;-51
2020/12/04 05:54:34;;;;;;;46.60;27.55;;;;;;;;;;5054346;28;20025;-52
2020/12/04 05:57:02;;;;;;;39.65;26.20;;;;;;;;;;5054267;28;20025;-51
2020/12/04 05:59:28;;;;;;;45.45;25.55;;;;;;;;;;5054238;28;20394;-51
2020/12/04 06:01:55;;;;;;;42.40;25.30;;;;;;;;;;5054265;28;20029;-51
2020/12/04 06:04:24;;;;;;;42.38;24.17;;;;;;;;;;5035764;28;20566;-52
2020/12/04 06:06:50;;;;;;;41.72;26.33;;;;;;;;;;5053773;28;20132;-51
2020/12/04 06:09:17;;;;;;;44.30;25.75;;;;;;;;;;5053898;28;20025;-52
2020/12/04 06:11:44;;;;;;;39.67;25.45;;;;;;;;;;5053832;28;20386;-52
2020/12/04 06:14:17;;;;;;;41.38;24.80;;;;;;;;;;5053566;28;20017;-52
2020/12/04 06:16:44;;;;;;;43.38;26.98;;;;;;;;;;5053929;28;20025;-52
2020/12/04 06:19:29;;;;;;;44.67;24.35;;;;;;;;;;5054049;28;20033;-52
2020/12/04 06:22:04;;;;;;;46.28;25.55;;;;;;;;;;5052951;28;20385;-52
2020/12/04 06:24:31;;;;;;;48.60;26.65;;;;;;;;;;5053141;28;20028;-51
2020/12/04 06:26:57;;;;;;;45.45;27.10;;;;;;;;;;5053058;28;20025;-52
2020/12/04 06:29:23;;;;;;;45.85;27.75;;;;;;;;;;5053163;28;20537;-52
2020/12/04 06:31:50;;;;;;;55.10;27.58;;;;;;;;;;5052014;28;20031;-52
2020/12/04 06:34:20;;;;;;;52.70;28.58;;;;;;;;;;5038302;28;20067;-52
2020/12/04 06:36:47;;;;;;;42.88;25.05;;;;;;;;;;5034570;28;20075;-51
2020/12/04 06:39:30;;;;;;;47.80;27.42;;;;;;;;;;5052896;28;20020;-51
2020/12/04 06:41:56;;;;;;;38.58;26.02;;;;;;;;;;5049138;28;20055;-51
2020/12/04 06:44:31;;;;;;;44.65;24.60;;;;;;;;;;5053092;28;20804;-51
2020/12/04 06:46:59;;;;;;;45.88;26.50;;;;;;;;;;5033066;28;20035;-52
2020/12/04 06:52:16;;;;;;;42.45;27.23;;;;;;;;;;5052327;28;20071;-52
2020/12/04 06:54:46;;;;;;;48.30;25.50;;;;;;;;;;5051731;28;20032;-53
2020/12/04 06:57:14;;;;;;;44.90;26.23;;;;;;;;;;5050099;28;20095;-53
2020/12/04 06:59:41;;;;;;;38.38;25.88;;;;;;;;;;5052637;28;20021;-57
2020/12/04 07:02:09;;;;;;;39.90;24.20;;;;;;;;;;5052454;28;20033;-54
2020/12/04 07:04:37;;;;;;;36.70;23.50;;;;;;;;;;5052363;28;20021;-55
2020/12/04 07:07:04;;;;;;;50.67;26.15;;;;;;;;;;5052121;28;20077;-53
2020/12/04 07:09:30;;;;;;;49.75;23.90;;;;;;;;;;5052826;28;20032;-55
2020/12/04 07:11:57;;;;;;;44.80;24.77;;;;;;;;;;5050290;28;20021;-49
2020/12/04 07:14:24;;;;;;;46.63;23.45;;;;;;;;;;5054451;28;20021;-51
2020/12/04 07:16:51;;;;;;;38.40;24.85;;;;;;;;;;5052082;28;20344;-51
2020/12/04 07:19:17;;;;;;;31.60;20.77;;;;;;;;;;5052352;28;20024;-51
2020/12/04 07:21:44;;;;;;;35.78;23.40;;;;;;;;;;5052570;28;20045;-56
2020/12/04 07:24:10;;;;;;;36.95;24.05;;;;;;;;;;5052527;28;20032;-59
2020/12/04 07:26:36;;;;;;;40.10;24.85;;;;;;;;;;5052424;28;20029;-56
2020/12/04 07:29:03;;;;;;;45.53;24.10;;;;;;;;;;5052499;28;20044;-55
2020/12/04 07:31:29;;;;;;;40.15;24.83;;;;;;;;;;5052416;28;20104;-52
2020/12/04 07:34:00;;;;;;;35.72;23.27;;;;;;;;;;5052311;28;20021;-50
2020/12/04 07:36:26;;;;;;;34.40;21.23;;;;;;;;;;5052482;28;20028;-51
2020/12/04 07:38:57;;;;;;;33.10;22.05;;;;;;;;;;5051544;28;20029;-51
2020/12/04 07:41:24;;;;;;;34.40;20.27;;;;;;;;;;5052309;28;20036;-50
2020/12/04 07:43:50;;;;;;;37.35;21.30;;;;;;;;;;5052019;28;20099;-52
2020/12/04 07:46:20;;;;;;;29.70;19.75;;;;;;;;;;5052153;28;20498;-52
2020/12/04 07:49:00;;;;;;;37.28;20.05;;;;;;;;;;5052130;28;20104;-50
2020/12/04 07:51:26;;;;;;;;;;;;;;;;;;5052499;28;20025;-48
2020/12/04 07:53:55;;;;;;;31.52;20.08;;;;;;;;;;5051899;28;19950;-49
2020/12/04 07:56:24;;;;;;;37.38;18.77;;;;;;;;;;5051792;28;20525;-52
2020/12/04 07:58:55;;;;;;;30.35;19.92;;;;;;;;;;5051905;28;20028;-52
2020/12/04 08:01:21;;;;;;;42.40;21.25;;;;;;;;;;5051911;28;20032;-56
2020/12/04 08:03:49;;;;;;;29.35;15.93;;;;;;;;;;5052015;28;20036;-53
2020/12/04 08:06:15;;;;;;;42.22;20.27;;;;;;;;;;5051662;28;20029;-55
2020/12/04 08:08:42;;;;;;;35.33;19.52;;;;;;;;;;5050341;28;20052;-51
2020/12/04 08:11:09;;;;;;;34.83;20.52;;;;;;;;;;5051947;28;20047;-47
2020/12/04 08:13:39;;;;;;;34.08;19.85;;;;;;;;;;5051758;28;20099;-51
2020/12/04 08:16:08;;;;;;;41.17;21.83;;;;;;;;;;5051714;28;20480;-52
2020/12/04 08:18:35;;;;;;;37.17;20.45;;;;;;;;;;5051780;28;20029;-52
2020/12/04 08:21:07;;;;;;;39.90;20.05;;;;;;;;;;5051647;28;20025;-52
2020/12/04 08:23:34;;;;;;;31.30;19.92;;;;;;;;;;5051756;28;20497;-52
2020/12/04 08:26:00;;;;;;;36.58;21.08;;;;;;;;;;5051453;28;20035;-52
2020/12/04 08:28:26;;;;;;;28.58;17.48;;;;;;;;;;5051689;28;20021;-54
2020/12/04 08:30:52;;;;;;;33.25;18.88;;;;;;;;;;5051576;28;20025;-54
2020/12/04 08:33:19;;;;;;;27.65;20.35;;;;;;;;;;5051745;28;20033;-55
2020/12/04 08:35:47;;;;;;;31.42;20.92;;;;;;;;;;5051740;28;20013;-56
2020/12/04 08:38:14;;;;;;;32.53;19.17;;;;;;;;;;5051614;28;20420;-51
2020/12/04 08:40:42;;;;;;;28.90;19.65;;;;;;;;;;5051572;28;20021;-52
2020/12/04 08:43:10;;;;;;;32.63;19.05;;;;;;;;;;5052528;28;20432;-51
2020/12/04 08:45:36;;;;;;;31.23;19.13;;;;;;;;;;5053193;28;20021;-50
2020/12/04 08:48:13;;;;;;;31.50;20.30;;;;;;;;;;5053423;28;20021;-52
2020/12/04 08:50:46;;;;;;;30.60;18.67;;;;;;;;;;5053950;28;20029;-52
2020/12/04 08:53:14;;;;;;;37.50;19.48;;;;;;;;;;5053459;28;20017;-51
2020/12/04 08:58:44;;;;;;;36.60;20.45;;;;;;;;;;5057151;28;20101;-52
2020/12/04 09:01:10;;;;;;;30.92;19.58;;;;;;;;;;5057041;28;20021;-52
2020/12/04 09:03:37;;;;;;;29.15;18.17;;;;;;;;;;5057324;28;20021;-53
2020/12/04 09:09:06;;;;;;;31.67;19.35;;;;;;;;;;5043576;28;20055;-50
2020/12/04 09:11:32;;;;;;;33.85;20.38;;;;;;;;;;5057203;28;20437;-51
2020/12/04 09:13:59;;;;;;;31.17;17.05;;;;;;;;;;5057123;28;20436;-51
2020/12/04 09:16:25;;;;;;;34.25;21.83;;;;;;;;;;5057355;28;20047;-51
2020/12/04 09:18:51;;;;;;;39.00;21.83;;;;;;;;;;5040684;28;20149;-51
2020/12/04 09:21:21;;;;;;;42.83;25.35;;;;;;;;;;5041139;28;20053;-51
2020/12/04 09:23:48;;;;;;;31.75;19.58;;;;;;;;;;5035233;28;20036;-52
2020/12/04 09:26:14;;;;;;;34.97;19.63;;;;;;;;;;5030946;28;20040;-52
2020/12/04 09:28:41;;;;;;;33.15;21.00;;;;;;;;;;5036959;28;20022;-59
2020/12/04 09:31:07;;;;;;;34.35;21.92;;;;;;;;;;5036836;28;20017;-60
2020/12/04 09:33:33;;;;;;;40.55;23.90;;;;;;;;;;5036883;28;20116;-52
2020/12/04 09:36:00;;;;;;;35.38;19.52;;;;;;;;;;5036473;28;20013;-52
2020/12/04 09:38:26;;;;;;;31.80;23.65;;;;;;;;;;5036701;28;20037;-53
2020/12/04 09:40:52;;;;;;;35.65;22.50;;;;;;;;;;5035151;28;20532;-51
2020/12/04 09:43:18;;;;;;;37.85;23.30;;;;;;;;;;5036237;28;20394;-54
2020/12/04 09:45:45;;;;;;;46.38;25.08;;;;;;;;;;5036594;28;20024;-53
2020/12/04 09:48:11;;;;;;;36.88;24.55;;;;;;;;;;5036201;28;20030;-51
2020/12/04 09:50:37;;;;;;;39.70;23.67;;;;;;;;;;5036075;28;20024;-57
2020/12/04 09:53:05;;;;;;;39.30;26.23;;;;;;;;;;5036395;28;20095;-52
2020/12/04 09:55:32;;;;;;;43.10;25.85;;;;;;;;;;5036340;28;20027;-55
2020/12/04 09:57:58;;;;;;;48.70;27.33;;;;;;;;;;5035982;28;20118;-59
2020/12/04 10:00:24;;;;;;;41.90;27.70;;;;;;;;;;5035931;28;20041;-61
2020/12/04 10:02:50;;;;;;;43.03;25.77;;;;;;;;;;5036132;28;20391;-57
2020/12/04 10:05:17;;;;;;;39.53;22.98;;;;;;;;;;5036025;28;20032;-56
2020/12/04 10:07:43;;;;;;;43.72;24.13;;;;;;;;;;5036304;28;20030;-68
2020/12/04 10:10:09;;;;;;;44.10;29.48;;;;;;;;;;5052640;28;20041;-51
2020/12/04 10:12:35;;;;;;;46.97;26.77;;;;;;;;;;5055962;28;20029;-52
2020/12/04 10:15:02;;;;;;;41.50;26.42;;;;;;;;;;5055559;28;20040;-52
2020/12/04 10:17:28;;;;;;;44.25;28.10;;;;;;;;;;5055767;28;20060;-53
2020/12/04 10:19:54;;;;;;;42.17;28.58;;;;;;;;;;5055522;28;20036;-51
2020/12/04 10:22:21;;;;;;;41.08;23.00;;;;;;;;;;5055847;28;20033;-51
2020/12/04 10:24:47;;;;;;;44.65;27.10;;;;;;;;;;5055339;28;20057;-52
2020/12/04 10:27:13;;;;;;;41.67;23.83;;;;;;;;;;5055685;28;20493;-51
2020/12/04 10:29:39;;;;;;;42.05;27.45;;;;;;;;;;5055678;28;20185;-52
2020/12/04 10:32:05;;;;;;;40.35;26.90;;;;;;;;;;5055273;28;20032;-52
2020/12/04 10:34:32;;;;;;;36.33;27.05;;;;;;;;;;5055648;28;20104;-52
2020/12/04 10:36:58;;;;;;;45.05;27.50;;;;;;;;;;5055647;28;20032;-52
2020/12/04 10:39:24;;;;;;;40.75;27.08;;;;;;;;;;5055184;28;20030;-51
2020/12/04 10:41:50;;;;;;;40.80;27.60;;;;;;;;;;5055483;28;20025;-58
2020/12/04 10:44:17;;;;;;;40.90;25.63;;;;;;;;;;5055451;28;20021;-55
2020/12/04 10:46:44;;;;;;;43.35;20.77;;;;;;;;;;5055015;28;20482;-50
2020/12/04 10:49:10;;;;;;;37.72;26.30;;;;;;;;;;5055346;28;20021;-51
2020/12/04 10:51:37;;;;;;;40.50;24.15;;;;;;;;;;5053901;28;20024;-52
2020/12/04 10:54:04;;;;;;;40.67;23.58;;;;;;;;;;5052818;28;20033;-55
2020/12/04 10:56:30;;;;;;;46.28;26.38;;;;;;;;;;5053285;28;20028;-52
2020/12/04 10:58:56;;;;;;;41.08;24.25;;;;;;;;;;5053222;28;20103;-53
2020/12/04 11:01:40;;;;;;;37.70;25.30;;;;;;;;;;5053148;28;20029;-53
2020/12/04 11:06:32;;;;;;;35.58;25.48;;;;;;;;;;5052560;28;20029;-52
2020/12/04 11:08:58;;;;;;;33.33;25.88;;;;;;;;;;5052820;28;20055;-52
2020/12/04 11:11:28;;;;;;;47.40;23.40;;;;;;;;;;5052907;28;20017;-49
2020/12/04 11:13:54;;;;;;;38.58;26.23;;;;;;;;;;5052777;28;20025;-52
2020/12/04 11:16:20;;;;;;;53.78;25.80;;;;;;;;;;5052636;28;20021;-50
2020/12/04 11:18:47;;;;;;;46.58;26.58;;;;;;;;;;5051834;28;20029;-53
2020/12/04 11:21:13;;;;;;;37.80;28.02;;;;;;;;;;5052831;28;20489;-52
2020/12/04 11:23:39;;;;;;;42.35;26.55;;;;;;;;;;5052311;28;20040;-52
2020/12/04 11:26:06;;;;;;;45.97;27.05;;;;;;;;;;5052520;28;20497;-53
2020/12/04 11:28:32;;;;;;;56.22;26.55;;;;;;;;;;5052339;28;20025;-52
2020/12/04 11:30:58;;;;;;;43.83;26.83;;;;;;;;;;5052388;28;20094;-52
2020/12/04 11:33:25;;;;;;;40.05;25.70;;;;;;;;;;5052358;28;20094;-52
2020/12/04 11:35:51;;;;;;;41.92;21.48;;;;;;;;;;5052143;28;20028;-52
2020/12/04 11:38:17;;;;;;;41.35;26.98;;;;;;;;;;5051763;28;20029;-51
2020/12/04 11:40:43;;;;;;;43.42;23.63;;;;;;;;;;5052365;28;20096;-52
2020/12/04 11:43:10;;;;;;;44.60;27.27;;;;;;;;;;5052244;28;20027;-53
2020/12/04 11:45:36;;;;;;;44.53;27.00;;;;;;;;;;5052256;28;20025;-52
2020/12/04 11:48:03;;;;;;;61.65;28.95;;;;;;;;;;5052034;28;20483;-65
2020/12/04 11:50:29;;;;;;;38.88;26.27;;;;;;;;;;5052236;28;20074;-51
2020/12/04 11:52:55;;;;;;;42.22;26.90;;;;;;;;;;5051882;28;20013;-52
2020/12/04 11:55:21;;;;;;;39.25;24.65;;;;;;;;;;5052055;28;20021;-52
2020/12/04 11:57:49;;;;;;;70.32;29.63;;;;;;;;;;5051861;28;20126;-50
2020/12/04 12:00:15;;;;;;;49.13;28.38;;;;;;;;;;5051945;28;20021;-51
2020/12/04 12:02:41;;;;;;;56.78;26.70;;;;;;;;;;5051858;28;20025;-51
2020/12/04 12:05:08;;;;;;;49.70;29.38;;;;;;;;;;5053800;28;20052;-50
2020/12/04 12:07:34;;;;;;;41.05;22.90;;;;;;;;;;5053483;28;20036;-52
2020/12/04 12:10:02;;;;;;;46.05;27.20;;;;;;;;;;5051648;28;20100;-52
2020/12/04 12:12:28;;;;;;;42.88;27.65;;;;;;;;;;5052793;28;20017;-52
2020/12/04 12:14:54;;;;;;;43.00;26.30;;;;;;;;;;5052640;28;20427;-52
2020/12/04 12:17:21;;;;;;;42.60;26.33;;;;;;;;;;5051801;28;20029;-50
2020/12/04 12:19:47;;;;;;;41.15;24.00;;;;;;;;;;5052107;28;20824;-56
2020/12/04 12:22:13;;;;;;;46.00;26.30;;;;;;;;;;5051802;28;20795;-54
2020/12/04 12:24:41;;;;;;;57.72;29.40;;;;;;;;;;5051351;28;20029;-54
2020/12/04 12:27:08;;;;;;;49.13;28.88;;;;;;;;;;5033933;28;20133;-52
2020/12/04 12:29:35;;;;;;;109.43;42.03;;;;;;;;;;5051099;28;20056;-52
2020/12/04 12:32:01;;;;;;;168.40;56.40;;;;;;;;;;5051717;28;20021;-52
2020/12/04 12:37:13;;;;;;;178.85;63.58;;;;;;;;;;5051797;28;20032;-51
2020/12/04 12:39:39;;;;;;;212.70;74.07;;;;;;;;;;5051242;28;20041;-51
2020/12/04 12:42:07;;;;;;;264.50;89.03;;;;;;;;;;5050997;28;20036;-52
2020/12/04 12:44:34;;;;;;;259.45;91.57;;;;;;;;;;5051006;28;20840;-53
2020/12/04 12:47:00;;;;;;;212.07;74.55;;;;;;;;;;5051267;28;20112;-50
2020/12/04 12:49:27;;;;;;;189.90;63.20;;;;;;;;;;5051608;28;20017;-51
2020/12/04 12:51:53;;;;;;;176.48;67.57;;;;;;;;;;5051282;28;20021;-51
2020/12/04 12:54:19;;;;;;;193.13;66.95;;;;;;;;;;5051148;28;20028;-51
2020/12/04 12:56:48;;;;;;;220.68;76.57;;;;;;;;;;5051265;28;20095;-54
2020/12/04 12:59:14;;;;;;;200.95;69.72;;;;;;;;;;5051116;28;20037;-53
2020/12/04 13:01:41;;;;;;;213.00;71.55;;;;;;;;;;5051322;28;20025;-52
2020/12/04 13:04:07;;;;;;;192.00;67.43;;;;;;;;;;5051214;28;20032;-53
2020/12/04 13:06:33;;;;;;;196.93;71.60;;;;;;;;;;5051151;28;20028;-52
2020/12/04 13:09:00;;;;;;;156.50;60.00;;;;;;;;;;5050988;28;20053;-53
2020/12/04 13:11:26;;;;;;;116.97;47.53;;;;;;;;;;5051133;28;20110;-53
2020/12/04 13:13:52;;;;;;;144.70;55.70;;;;;;;;;;5051240;28;20024;-52
2020/12/04 13:16:18;;;;;;;164.38;57.33;;;;;;;;;;5050998;28;20025;-54
2020/12/04 13:18:45;;;;;;;164.57;59.22;;;;;;;;;;5051283;28;20096;-49
2020/12/04 13:21:14;;;;;;;149.18;57.47;;;;;;;;;;5051081;28;20028;-51
2020/12/04 13:23:40;;;;;;;149.38;60.22;;;;;;;;;;5051050;28;20567;-51
2020/12/04 13:26:06;;;;;;;127.30;56.65;;;;;;;;;;5051020;28;20036;-52
2020/12/04 13:28:33;;;;;;;135.48;53.85;;;;;;;;;;5051150;28;20036;-52
2020/12/04 13:30:59;;;;;;;103.15;50.63;;;;;;;;;;5050949;28;20482;-52
2020/12/04 13:33:25;;;;;;;133.38;51.63;;;;;;;;;;5050996;28;20124;-53
2020/12/04 13:35:51;;;;;;;109.70;49.13;;;;;;;;;;5051020;28;20021;-60
2020/12/04 13:38:18;;;;;;;141.40;54.33;;;;;;;;;;5050959;28;20029;-58
2020/12/04 13:40:44;;;;;;;111.90;48.03;;;;;;;;;;5051655;28;20368;-54
2020/12/04 13:43:10;;;;;;;113.47;49.20;;;;;;;;;;5054248;28;20390;-52
2020/12/04 13:45:37;;;;;;;119.60;47.85;;;;;;;;;;5054455;28;20025;-53
2020/12/04 13:48:03;;;;;;;110.13;43.85;;;;;;;;;;5053723;28;20064;-55
2020/12/04 13:50:29;;;;;;;115.40;49.42;;;;;;;;;;5053119;28;20025;-51
2020/12/04 13:52:57;;;;;;;104.88;43.17;;;;;;;;;;5052923;28;20083;-52
2020/12/04 13:55:23;;;;;;;110.97;46.78;;;;;;;;;;5053084;28;20017;-51
2020/12/04 13:57:49;;;;;;;90.40;41.05;;;;;;;;;;5053082;28;20540;-50
2020/12/04 14:00:15;;;;;;;111.68;44.53;;;;;;;;;;5052946;28;20032;-52
2020/12/04 14:02:42;;;;;;;87.15;39.92;;;;;;;;;;5053035;28;20478;-53
2020/12/04 14:05:08;;;;;;;84.72;39.97;;;;;;;;;;5053242;28;20843;-61
2020/12/04 14:07:34;;;;;;;93.88;40.60;;;;;;;;;;5051543;28;20135;-57
2020/12/04 14:10:00;;;;;;;91.28;40.88;;;;;;;;;;5052476;28;20041;-52
2020/12/04 14:12:27;;;;;;;86.43;41.10;;;;;;;;;;5052799;28;20110;-51
2020/12/04 14:14:53;;;;;;;73.68;33.35;;;;;;;;;;5052641;28;20024;-55
2020/12/04 14:17:21;;;;;;;83.80;37.08;;;;;;;;;;5052354;28;20086;-52
2020/12/04 14:19:47;;;;;;;85.78;35.75;;;;;;;;;;5052199;28;20029;-52
2020/12/04 14:22:14;;;;;;;95.55;38.42;;;;;;;;;;5052177;28;20032;-52
2020/12/04 14:24:40;;;;;;;84.03;38.67;;;;;;;;;;5052271;28;20024;-52
2020/12/04 14:27:06;;;;;;;72.45;34.85;;;;;;;;;;5052316;28;20061;-53
2020/12/04 14:29:33;;;;;;;77.60;37.20;;;;;;;;;;5051988;28;20405;-52